sensor_id;sensor_type;location;lat;lon;timestamp;P1;P2;P0
12542;PMS3003;6337;49.556;25.594;2022-08-19T00:00:03;25.53;15.00;
12542;PMS3003;6337;49.556;25.594;2022-08-19T00:02:30;27.23;17.67;
12542;PMS3003;6337;49.556;25.594;2022-08-19T00:04:59;24.80;17.90;
12542;PMS3003;6337;49.556;25.594;2022-08-19T00:07:27;20.10;15.80;
12542;PMS3003;6337;49.556;25.594;2022-08-19T00:09:54;35.87;16.53;
12542;PMS3003;6337;49.556;25.594;2022-08-19T00:12:21;21.10;16.57;
12542;PMS3003;6337;49.556;25.594;2022-08-19T00:14:48;22.63;17.47;
12542;PMS3003;6337;49.556;25.594;2022-08-19T00:17:15;20.50;15.63;
12542;PMS3003;6337;49.556;25.594;2022-08-19T00:20:02;21.20;16.33;
12542;PMS3003;6337;49.556;25.594;2022-08-19T00:22:30;26.20;15.60;
12542;PMS3003;6337;49.556;25.594;2022-08-19T00:24:57;23.60;16.37;
12542;PMS3003;6337;49.556;25.594;2022-08-19T00:27:24;22.90;17.10;
12542;PMS3003;6337;49.556;25.594;2022-08-19T00:29:51;21.17;16.30;
12542;PMS3003;6337;49.556;25.594;2022-08-19T00:32:18;23.60;17.00;
12542;PMS3003;6337;49.556;25.594;2022-08-19T00:34:47;21.23;15.33;
12542;PMS3003;6337;49.556;25.594;2022-08-19T00:37:15;23.37;17.53;
12542;PMS3003;6337;49.556;25.594;2022-08-19T00:39:43;22.87;16.67;
12542;PMS3003;6337;49.556;25.594;2022-08-19T00:42:10;18.50;15.93;
12542;PMS3003;6337;49.556;25.594;2022-08-19T00:44:40;23.93;16.37;
12542;PMS3003;6337;49.556;25.594;2022-08-19T00:47:08;25.50;18.17;
12542;PMS3003;6337;49.556;25.594;2022-08-19T00:49:37;27.80;17.37;
12542;PMS3003;6337;49.556;25.594;2022-08-19T00:52:08;22.97;16.30;
12542;PMS3003;6337;49.556;25.594;2022-08-19T00:54:38;28.20;17.17;
12542;PMS3003;6337;49.556;25.594;2022-08-19T00:57:07;25.83;16.13;
12542;PMS3003;6337;49.556;25.594;2022-08-19T00:59:37;23.40;16.23;
12542;PMS3003;6337;49.556;25.594;2022-08-19T01:02:06;31.47;15.90;
12542;PMS3003;6337;49.556;25.594;2022-08-19T01:04:34;19.80;15.40;
12542;PMS3003;6337;49.556;25.594;2022-08-19T01:07:01;25.40;17.63;
12542;PMS3003;6337;49.556;25.594;2022-08-19T01:09:29;23.27;18.30;
12542;PMS3003;6337;49.556;25.594;2022-08-19T01:11:58;27.30;20.20;
12542;PMS3003;6337;49.556;25.594;2022-08-19T01:14:26;26.97;19.37;
12542;PMS3003;6337;49.556;25.594;2022-08-19T01:16:53;25.73;19.70;
12542;PMS3003;6337;49.556;25.594;2022-08-19T01:19:23;32.67;19.47;
12542;PMS3003;6337;49.556;25.594;2022-08-19T01:21:55;25.77;18.93;
12542;PMS3003;6337;49.556;25.594;2022-08-19T01:24:26;33.43;19.20;
12542;PMS3003;6337;49.556;25.594;2022-08-19T01:26:53;24.43;19.87;
12542;PMS3003;6337;49.556;25.594;2022-08-19T01:29:20;23.93;18.53;
12542;PMS3003;6337;49.556;25.594;2022-08-19T01:31:48;25.87;18.30;
12542;PMS3003;6337;49.556;25.594;2022-08-19T01:34:18;31.87;19.67;
12542;PMS3003;6337;49.556;25.594;2022-08-19T01:36:46;32.10;20.33;
12542;PMS3003;6337;49.556;25.594;2022-08-19T01:39:15;28.40;19.37;
12542;PMS3003;6337;49.556;25.594;2022-08-19T01:41:46;29.13;19.33;
12542;PMS3003;6337;49.556;25.594;2022-08-19T01:44:13;23.87;17.00;
12542;PMS3003;6337;49.556;25.594;2022-08-19T01:46:42;30.97;19.47;
12542;PMS3003;6337;49.556;25.594;2022-08-19T01:49:09;23.17;18.93;
12542;PMS3003;6337;49.556;25.594;2022-08-19T01:51:36;24.50;17.50;
12542;PMS3003;6337;49.556;25.594;2022-08-19T01:54:04;32.50;18.07;
12542;PMS3003;6337;49.556;25.594;2022-08-19T01:56:31;19.93;16.50;
12542;PMS3003;6337;49.556;25.594;2022-08-19T01:59:00;25.07;18.20;
12542;PMS3003;6337;49.556;25.594;2022-08-19T02:01:29;22.73;16.97;
12542;PMS3003;6337;49.556;25.594;2022-08-19T02:03:57;31.30;18.43;
12542;PMS3003;6337;49.556;25.594;2022-08-19T02:06:25;24.60;15.23;
12542;PMS3003;6337;49.556;25.594;2022-08-19T02:08:53;22.57;16.77;
12542;PMS3003;6337;49.556;25.594;2022-08-19T02:11:22;26.83;17.63;
12542;PMS3003;6337;49.556;25.594;2022-08-19T02:13:51;28.33;18.30;
12542;PMS3003;6337;49.556;25.594;2022-08-19T02:16:21;21.67;17.40;
12542;PMS3003;6337;49.556;25.594;2022-08-19T02:18:48;19.60;16.50;
12542;PMS3003;6337;49.556;25.594;2022-08-19T02:21:15;29.07;17.03;
12542;PMS3003;6337;49.556;25.594;2022-08-19T02:23:42;24.13;17.27;
12542;PMS3003;6337;49.556;25.594;2022-08-19T02:26:10;20.63;16.27;
12542;PMS3003;6337;49.556;25.594;2022-08-19T02:28:37;29.33;18.50;
12542;PMS3003;6337;49.556;25.594;2022-08-19T02:31:08;19.23;17.00;
12542;PMS3003;6337;49.556;25.594;2022-08-19T02:33:37;22.60;18.33;
12542;PMS3003;6337;49.556;25.594;2022-08-19T02:36:05;23.93;17.67;
12542;PMS3003;6337;49.556;25.594;2022-08-19T02:38:33;31.80;18.67;
12542;PMS3003;6337;49.556;25.594;2022-08-19T02:41:00;29.20;17.93;
12542;PMS3003;6337;49.556;25.594;2022-08-19T02:43:30;22.93;17.30;
12542;PMS3003;6337;49.556;25.594;2022-08-19T02:46:00;21.47;17.07;
12542;PMS3003;6337;49.556;25.594;2022-08-19T02:48:27;19.63;17.53;
12542;PMS3003;6337;49.556;25.594;2022-08-19T02:50:56;25.67;17.60;
12542;PMS3003;6337;49.556;25.594;2022-08-19T02:53:25;29.23;17.13;
12542;PMS3003;6337;49.556;25.594;2022-08-19T02:55:54;37.33;19.60;
12542;PMS3003;6337;49.556;25.594;2022-08-19T02:58:21;29.90;17.30;
12542;PMS3003;6337;49.556;25.594;2022-08-19T03:00:50;37.80;17.80;
12542;PMS3003;6337;49.556;25.594;2022-08-19T03:03:18;24.57;18.40;
12542;PMS3003;6337;49.556;25.594;2022-08-19T03:05:46;21.97;17.23;
12542;PMS3003;6337;49.556;25.594;2022-08-19T03:08:15;24.00;17.10;
12542;PMS3003;6337;49.556;25.594;2022-08-19T03:10:43;20.57;17.27;
12542;PMS3003;6337;49.556;25.594;2022-08-19T03:13:11;31.10;17.93;
12542;PMS3003;6337;49.556;25.594;2022-08-19T03:15:40;34.60;17.87;
12542;PMS3003;6337;49.556;25.594;2022-08-19T03:18:08;22.90;18.30;
12542;PMS3003;6337;49.556;25.594;2022-08-19T03:20:39;21.90;17.10;
12542;PMS3003;6337;49.556;25.594;2022-08-19T03:23:08;19.40;16.40;
12542;PMS3003;6337;49.556;25.594;2022-08-19T03:25:38;24.63;16.03;
12542;PMS3003;6337;49.556;25.594;2022-08-19T03:28:08;25.73;17.47;
12542;PMS3003;6337;49.556;25.594;2022-08-19T03:30:35;26.07;16.43;
12542;PMS3003;6337;49.556;25.594;2022-08-19T03:33:04;26.80;17.37;
12542;PMS3003;6337;49.556;25.594;2022-08-19T03:35:32;26.77;17.27;
12542;PMS3003;6337;49.556;25.594;2022-08-19T03:38:01;26.20;16.90;
12542;PMS3003;6337;49.556;25.594;2022-08-19T03:40:29;25.50;18.30;
12542;PMS3003;6337;49.556;25.594;2022-08-19T03:42:58;27.80;18.03;
12542;PMS3003;6337;49.556;25.594;2022-08-19T03:45:25;28.90;19.43;
12542;PMS3003;6337;49.556;25.594;2022-08-19T03:47:53;19.93;15.87;
12542;PMS3003;6337;49.556;25.594;2022-08-19T03:50:20;21.67;16.60;
12542;PMS3003;6337;49.556;25.594;2022-08-19T03:52:48;22.97;17.13;
12542;PMS3003;6337;49.556;25.594;2022-08-19T03:55:16;27.93;15.40;
12542;PMS3003;6337;49.556;25.594;2022-08-19T03:57:43;32.60;16.93;
12542;PMS3003;6337;49.556;25.594;2022-08-19T04:00:15;31.57;15.97;
12542;PMS3003;6337;49.556;25.594;2022-08-19T04:02:43;24.70;16.50;
12542;PMS3003;6337;49.556;25.594;2022-08-19T04:05:10;27.30;17.60;
12542;PMS3003;6337;49.556;25.594;2022-08-19T04:07:39;35.20;15.83;
12542;PMS3003;6337;49.556;25.594;2022-08-19T04:10:06;17.67;15.87;
12542;PMS3003;6337;49.556;25.594;2022-08-19T04:12:34;25.73;17.50;
12542;PMS3003;6337;49.556;25.594;2022-08-19T04:15:02;27.60;17.53;
12542;PMS3003;6337;49.556;25.594;2022-08-19T04:17:32;25.53;18.13;
12542;PMS3003;6337;49.556;25.594;2022-08-19T04:19:59;29.20;18.70;
12542;PMS3003;6337;49.556;25.594;2022-08-19T04:22:26;26.20;15.23;
12542;PMS3003;6337;49.556;25.594;2022-08-19T04:24:55;27.00;14.80;
12542;PMS3003;6337;49.556;25.594;2022-08-19T04:27:22;24.17;16.30;
12542;PMS3003;6337;49.556;25.594;2022-08-19T04:29:49;22.20;16.27;
12542;PMS3003;6337;49.556;25.594;2022-08-19T04:32:16;24.03;15.17;
12542;PMS3003;6337;49.556;25.594;2022-08-19T04:34:44;25.27;15.27;
12542;PMS3003;6337;49.556;25.594;2022-08-19T04:37:11;19.67;14.00;
12542;PMS3003;6337;49.556;25.594;2022-08-19T04:39:39;23.43;15.77;
12542;PMS3003;6337;49.556;25.594;2022-08-19T04:42:23;27.43;14.00;
12542;PMS3003;6337;49.556;25.594;2022-08-19T04:45:06;19.60;13.40;
12542;PMS3003;6337;49.556;25.594;2022-08-19T04:47:36;18.60;14.40;
12542;PMS3003;6337;49.556;25.594;2022-08-19T04:50:05;23.97;15.27;
12542;PMS3003;6337;49.556;25.594;2022-08-19T04:52:32;26.13;16.37;
12542;PMS3003;6337;49.556;25.594;2022-08-19T04:55:00;28.60;15.23;
12542;PMS3003;6337;49.556;25.594;2022-08-19T04:57:27;24.67;15.30;
12542;PMS3003;6337;49.556;25.594;2022-08-19T04:59:54;30.73;16.23;
12542;PMS3003;6337;49.556;25.594;2022-08-19T05:02:22;26.23;17.50;
12542;PMS3003;6337;49.556;25.594;2022-08-19T05:04:50;23.80;16.30;
12542;PMS3003;6337;49.556;25.594;2022-08-19T05:07:19;23.00;16.47;
12542;PMS3003;6337;49.556;25.594;2022-08-19T05:09:46;32.17;18.03;
12542;PMS3003;6337;49.556;25.594;2022-08-19T05:12:13;24.93;17.20;
12542;PMS3003;6337;49.556;25.594;2022-08-19T05:14:40;28.03;17.07;
12542;PMS3003;6337;49.556;25.594;2022-08-19T05:17:07;25.87;16.07;
12542;PMS3003;6337;49.556;25.594;2022-08-19T05:19:34;29.17;16.73;
12542;PMS3003;6337;49.556;25.594;2022-08-19T05:22:20;24.70;16.10;
12542;PMS3003;6337;49.556;25.594;2022-08-19T05:25:04;30.90;16.50;
12542;PMS3003;6337;49.556;25.594;2022-08-19T05:27:34;23.87;16.90;
12542;PMS3003;6337;49.556;25.594;2022-08-19T05:30:02;24.40;14.23;
12542;PMS3003;6337;49.556;25.594;2022-08-19T05:32:30;25.77;14.90;
12542;PMS3003;6337;49.556;25.594;2022-08-19T05:34:57;24.27;14.20;
12542;PMS3003;6337;49.556;25.594;2022-08-19T05:37:26;31.43;15.33;
12542;PMS3003;6337;49.556;25.594;2022-08-19T05:39:53;18.03;12.13;
12542;PMS3003;6337;49.556;25.594;2022-08-19T05:42:21;20.73;12.13;
12542;PMS3003;6337;49.556;25.594;2022-08-19T05:44:49;20.50;12.67;
12542;PMS3003;6337;49.556;25.594;2022-08-19T05:47:17;14.70;11.33;
12542;PMS3003;6337;49.556;25.594;2022-08-19T05:49:45;24.17;13.00;
12542;PMS3003;6337;49.556;25.594;2022-08-19T05:52:13;15.97;13.30;
12542;PMS3003;6337;49.556;25.594;2022-08-19T05:54:43;18.97;11.50;
12542;PMS3003;6337;49.556;25.594;2022-08-19T05:57:13;20.83;12.20;
12542;PMS3003;6337;49.556;25.594;2022-08-19T05:59:40;12.47;11.20;
12542;PMS3003;6337;49.556;25.594;2022-08-19T06:02:09;22.67;10.90;
12542;PMS3003;6337;49.556;25.594;2022-08-19T06:04:36;19.17;9.70;
12542;PMS3003;6337;49.556;25.594;2022-08-19T06:07:04;21.23;10.00;
12542;PMS3003;6337;49.556;25.594;2022-08-19T06:09:31;16.50;10.87;
12542;PMS3003;6337;49.556;25.594;2022-08-19T06:12:00;17.13;9.27;
12542;PMS3003;6337;49.556;25.594;2022-08-19T06:14:30;13.40;9.87;
12542;PMS3003;6337;49.556;25.594;2022-08-19T06:16:59;11.30;9.60;
12542;PMS3003;6337;49.556;25.594;2022-08-19T06:19:27;17.73;10.37;
12542;PMS3003;6337;49.556;25.594;2022-08-19T06:21:56;12.80;9.70;
12542;PMS3003;6337;49.556;25.594;2022-08-19T06:24:25;13.57;9.37;
12542;PMS3003;6337;49.556;25.594;2022-08-19T06:26:54;17.80;8.37;
12542;PMS3003;6337;49.556;25.594;2022-08-19T06:29:24;15.93;9.70;
12542;PMS3003;6337;49.556;25.594;2022-08-19T06:31:53;17.03;8.80;
12542;PMS3003;6337;49.556;25.594;2022-08-19T06:34:22;14.60;9.43;
12542;PMS3003;6337;49.556;25.594;2022-08-19T06:36:50;10.37;9.30;
12542;PMS3003;6337;49.556;25.594;2022-08-19T06:39:19;14.47;7.97;
12542;PMS3003;6337;49.556;25.594;2022-08-19T06:41:48;8.50;7.20;
12542;PMS3003;6337;49.556;25.594;2022-08-19T06:44:16;12.40;7.50;
12542;PMS3003;6337;49.556;25.594;2022-08-19T06:46:46;11.33;8.93;
12542;PMS3003;6337;49.556;25.594;2022-08-19T06:49:14;14.00;9.63;
12542;PMS3003;6337;49.556;25.594;2022-08-19T06:51:42;19.40;9.70;
12542;PMS3003;6337;49.556;25.594;2022-08-19T06:54:10;19.13;8.07;
12542;PMS3003;6337;49.556;25.594;2022-08-19T06:56:37;9.10;7.43;
12542;PMS3003;6337;49.556;25.594;2022-08-19T06:59:05;12.97;8.00;
12542;PMS3003;6337;49.556;25.594;2022-08-19T07:01:34;12.10;8.00;
12542;PMS3003;6337;49.556;25.594;2022-08-19T07:04:04;15.17;9.33;
12542;PMS3003;6337;49.556;25.594;2022-08-19T07:06:33;14.10;9.73;
12542;PMS3003;6337;49.556;25.594;2022-08-19T07:09:01;8.90;7.27;
12542;PMS3003;6337;49.556;25.594;2022-08-19T07:11:29;17.50;9.80;
12542;PMS3003;6337;49.556;25.594;2022-08-19T07:13:57;13.33;7.77;
12542;PMS3003;6337;49.556;25.594;2022-08-19T07:16:24;18.77;9.00;
12542;PMS3003;6337;49.556;25.594;2022-08-19T07:18:52;9.97;8.40;
12542;PMS3003;6337;49.556;25.594;2022-08-19T07:21:23;17.57;8.07;
12542;PMS3003;6337;49.556;25.594;2022-08-19T07:23:51;17.70;8.40;
12542;PMS3003;6337;49.556;25.594;2022-08-19T07:26:19;15.77;8.93;
12542;PMS3003;6337;49.556;25.594;2022-08-19T07:28:48;16.57;9.20;
12542;PMS3003;6337;49.556;25.594;2022-08-19T07:31:17;12.37;7.20;
12542;PMS3003;6337;49.556;25.594;2022-08-19T07:33:45;14.90;8.20;
12542;PMS3003;6337;49.556;25.594;2022-08-19T07:36:14;16.77;6.87;
12542;PMS3003;6337;49.556;25.594;2022-08-19T07:38:47;9.80;7.03;
12542;PMS3003;6337;49.556;25.594;2022-08-19T07:41:16;11.63;6.80;
12542;PMS3003;6337;49.556;25.594;2022-08-19T07:43:45;16.83;8.37;
12542;PMS3003;6337;49.556;25.594;2022-08-19T07:46:13;11.03;6.53;
12542;PMS3003;6337;49.556;25.594;2022-08-19T07:48:42;10.33;7.40;
12542;PMS3003;6337;49.556;25.594;2022-08-19T07:51:14;9.00;6.77;
12542;PMS3003;6337;49.556;25.594;2022-08-19T07:53:42;14.27;6.80;
12542;PMS3003;6337;49.556;25.594;2022-08-19T07:56:12;11.63;7.10;
12542;PMS3003;6337;49.556;25.594;2022-08-19T07:58:41;11.03;7.27;
12542;PMS3003;6337;49.556;25.594;2022-08-19T08:01:11;21.97;7.10;
12542;PMS3003;6337;49.556;25.594;2022-08-19T08:03:40;14.33;5.87;
12542;PMS3003;6337;49.556;25.594;2022-08-19T08:06:25;10.00;7.33;
12542;PMS3003;6337;49.556;25.594;2022-08-19T08:09:10;9.13;6.53;
12542;PMS3003;6337;49.556;25.594;2022-08-19T08:11:44;8.73;5.63;
12542;PMS3003;6337;49.556;25.594;2022-08-19T08:14:16;12.23;5.63;
12542;PMS3003;6337;49.556;25.594;2022-08-19T08:16:47;9.23;6.63;
12542;PMS3003;6337;49.556;25.594;2022-08-19T08:19:15;15.50;6.90;
12542;PMS3003;6337;49.556;25.594;2022-08-19T08:21:43;12.40;6.10;
12542;PMS3003;6337;49.556;25.594;2022-08-19T08:24:10;7.80;6.47;
12542;PMS3003;6337;49.556;25.594;2022-08-19T08:26:38;7.80;6.40;
12542;PMS3003;6337;49.556;25.594;2022-08-19T08:29:10;7.53;6.23;
12542;PMS3003;6337;49.556;25.594;2022-08-19T08:31:39;13.60;5.87;
12542;PMS3003;6337;49.556;25.594;2022-08-19T08:34:08;5.83;4.73;
12542;PMS3003;6337;49.556;25.594;2022-08-19T08:36:36;7.47;5.10;
12542;PMS3003;6337;49.556;25.594;2022-08-19T08:39:05;21.30;5.00;
12542;PMS3003;6337;49.556;25.594;2022-08-19T08:41:34;5.33;4.83;
12542;PMS3003;6337;49.556;25.594;2022-08-19T08:44:06;6.93;5.00;
12542;PMS3003;6337;49.556;25.594;2022-08-19T08:46:41;7.97;5.80;
12542;PMS3003;6337;49.556;25.594;2022-08-19T08:49:15;8.43;5.13;
12542;PMS3003;6337;49.556;25.594;2022-08-19T08:51:47;11.50;4.87;
12542;PMS3003;6337;49.556;25.594;2022-08-19T08:54:17;8.37;4.20;
12542;PMS3003;6337;49.556;25.594;2022-08-19T08:56:46;5.40;3.70;
12542;PMS3003;6337;49.556;25.594;2022-08-19T08:59:16;8.77;4.37;
12542;PMS3003;6337;49.556;25.594;2022-08-19T09:01:50;5.60;3.83;
12542;PMS3003;6337;49.556;25.594;2022-08-19T09:04:18;11.00;5.10;
12542;PMS3003;6337;49.556;25.594;2022-08-19T09:06:48;4.77;3.53;
12542;PMS3003;6337;49.556;25.594;2022-08-19T09:09:22;4.30;3.90;
12542;PMS3003;6337;49.556;25.594;2022-08-19T09:11:59;10.43;4.23;
12542;PMS3003;6337;49.556;25.594;2022-08-19T09:14:36;4.90;4.43;
12542;PMS3003;6337;49.556;25.594;2022-08-19T09:17:08;7.90;4.00;
12542;PMS3003;6337;49.556;25.594;2022-08-19T09:19:46;6.10;4.00;
12542;PMS3003;6337;49.556;25.594;2022-08-19T09:22:15;5.00;3.70;
12542;PMS3003;6337;49.556;25.594;2022-08-19T09:24:42;8.77;3.60;
12542;PMS3003;6337;49.556;25.594;2022-08-19T09:27:09;4.27;3.87;
12542;PMS3003;6337;49.556;25.594;2022-08-19T09:29:37;5.73;3.80;
12542;PMS3003;6337;49.556;25.594;2022-08-19T09:32:04;5.97;5.23;
12542;PMS3003;6337;49.556;25.594;2022-08-19T09:34:33;4.53;3.60;
12542;PMS3003;6337;49.556;25.594;2022-08-19T09:37:01;6.43;4.33;
12542;PMS3003;6337;49.556;25.594;2022-08-19T09:39:28;5.10;4.20;
12542;PMS3003;6337;49.556;25.594;2022-08-19T09:41:56;5.00;3.67;
12542;PMS3003;6337;49.556;25.594;2022-08-19T09:44:24;4.07;3.60;
12542;PMS3003;6337;49.556;25.594;2022-08-19T09:46:51;10.40;4.67;
12542;PMS3003;6337;49.556;25.594;2022-08-19T09:49:18;4.70;4.30;
12542;PMS3003;6337;49.556;25.594;2022-08-19T09:51:50;10.47;4.40;
12542;PMS3003;6337;49.556;25.594;2022-08-19T09:54:20;7.43;4.37;
12542;PMS3003;6337;49.556;25.594;2022-08-19T09:56:47;8.63;4.73;
12542;PMS3003;6337;49.556;25.594;2022-08-19T09:59:14;4.90;4.50;
12542;PMS3003;6337;49.556;25.594;2022-08-19T10:01:41;13.20;4.10;
12542;PMS3003;6337;49.556;25.594;2022-08-19T10:04:09;7.80;4.60;
12542;PMS3003;6337;49.556;25.594;2022-08-19T10:06:36;12.90;4.90;
12542;PMS3003;6337;49.556;25.594;2022-08-19T10:09:07;4.27;3.77;
12542;PMS3003;6337;49.556;25.594;2022-08-19T10:11:35;7.20;4.63;
12542;PMS3003;6337;49.556;25.594;2022-08-19T10:14:06;6.10;4.60;
12542;PMS3003;6337;49.556;25.594;2022-08-19T10:16:33;7.53;4.87;
12542;PMS3003;6337;49.556;25.594;2022-08-19T10:19:04;10.87;4.80;
12542;PMS3003;6337;49.556;25.594;2022-08-19T10:21:31;6.63;3.53;
12542;PMS3003;6337;49.556;25.594;2022-08-19T10:24:00;8.97;3.83;
12542;PMS3003;6337;49.556;25.594;2022-08-19T10:26:31;8.83;4.40;
12542;PMS3003;6337;49.556;25.594;2022-08-19T10:28:59;7.43;3.73;
12542;PMS3003;6337;49.556;25.594;2022-08-19T10:31:28;6.40;4.80;
12542;PMS3003;6337;49.556;25.594;2022-08-19T10:33:56;5.60;3.73;
12542;PMS3003;6337;49.556;25.594;2022-08-19T10:36:27;8.20;4.00;
12542;PMS3003;6337;49.556;25.594;2022-08-19T10:38:57;4.50;4.10;
12542;PMS3003;6337;49.556;25.594;2022-08-19T10:41:28;4.90;4.40;
12542;PMS3003;6337;49.556;25.594;2022-08-19T10:43:59;4.83;3.50;
12542;PMS3003;6337;49.556;25.594;2022-08-19T10:46:27;11.23;3.80;
12542;PMS3003;6337;49.556;25.594;2022-08-19T10:48:56;8.07;4.70;
12542;PMS3003;6337;49.556;25.594;2022-08-19T10:51:23;10.90;3.80;
12542;PMS3003;6337;49.556;25.594;2022-08-19T10:54:08;12.70;3.63;
12542;PMS3003;6337;49.556;25.594;2022-08-19T10:56:35;4.90;4.50;
12542;PMS3003;6337;49.556;25.594;2022-08-19T10:59:19;7.53;3.90;
12542;PMS3003;6337;49.556;25.594;2022-08-19T11:01:48;8.73;3.53;
12542;PMS3003;6337;49.556;25.594;2022-08-19T11:04:17;10.17;3.20;
12542;PMS3003;6337;49.556;25.594;2022-08-19T11:06:45;5.33;3.10;
12542;PMS3003;6337;49.556;25.594;2022-08-19T11:09:13;5.93;3.20;
12542;PMS3003;6337;49.556;25.594;2022-08-19T11:11:41;10.47;4.43;
12542;PMS3003;6337;49.556;25.594;2022-08-19T11:14:09;4.20;3.33;
12542;PMS3003;6337;49.556;25.594;2022-08-19T11:16:40;6.90;3.30;
12542;PMS3003;6337;49.556;25.594;2022-08-19T11:19:09;5.00;3.30;
12542;PMS3003;6337;49.556;25.594;2022-08-19T11:21:39;6.57;4.17;
12542;PMS3003;6337;49.556;25.594;2022-08-19T11:24:14;4.63;3.23;
12542;PMS3003;6337;49.556;25.594;2022-08-19T11:26:43;4.20;3.17;
12542;PMS3003;6337;49.556;25.594;2022-08-19T11:29:11;8.17;4.63;
12542;PMS3003;6337;49.556;25.594;2022-08-19T11:31:41;4.70;3.57;
12542;PMS3003;6337;49.556;25.594;2022-08-19T11:34:11;6.97;3.63;
12542;PMS3003;6337;49.556;25.594;2022-08-19T11:36:40;7.13;3.80;
12542;PMS3003;6337;49.556;25.594;2022-08-19T11:39:10;9.40;3.80;
12542;PMS3003;6337;49.556;25.594;2022-08-19T11:41:39;7.27;4.20;
12542;PMS3003;6337;49.556;25.594;2022-08-19T11:44:06;9.73;3.90;
12542;PMS3003;6337;49.556;25.594;2022-08-19T11:46:35;8.40;3.80;
12542;PMS3003;6337;49.556;25.594;2022-08-19T11:49:07;5.67;4.23;
12542;PMS3003;6337;49.556;25.594;2022-08-19T11:51:34;4.00;3.67;
12542;PMS3003;6337;49.556;25.594;2022-08-19T11:54:03;9.60;3.47;
12542;PMS3003;6337;49.556;25.594;2022-08-19T11:56:31;9.33;3.30;
12542;PMS3003;6337;49.556;25.594;2022-08-19T11:58:59;4.27;3.73;
12542;PMS3003;6337;49.556;25.594;2022-08-19T12:01:27;7.00;3.47;
12542;PMS3003;6337;49.556;25.594;2022-08-19T12:03:54;7.53;4.70;
12542;PMS3003;6337;49.556;25.594;2022-08-19T12:06:25;6.70;3.53;
12542;PMS3003;6337;49.556;25.594;2022-08-19T12:08:54;3.97;3.60;
12542;PMS3003;6337;49.556;25.594;2022-08-19T12:11:22;11.00;4.57;
12542;PMS3003;6337;49.556;25.594;2022-08-19T12:13:49;21.77;5.03;
12542;PMS3003;6337;49.556;25.594;2022-08-19T12:16:19;4.33;3.93;
12542;PMS3003;6337;49.556;25.594;2022-08-19T12:18:48;10.40;4.00;
12542;PMS3003;6337;49.556;25.594;2022-08-19T12:21:17;15.33;3.93;
12542;PMS3003;6337;49.556;25.594;2022-08-19T12:23:47;4.33;3.60;
12542;PMS3003;6337;49.556;25.594;2022-08-19T12:26:16;5.30;4.20;
12542;PMS3003;6337;49.556;25.594;2022-08-19T12:28:44;4.50;3.60;
12542;PMS3003;6337;49.556;25.594;2022-08-19T12:31:13;6.93;3.70;
12542;PMS3003;6337;49.556;25.594;2022-08-19T12:33:42;7.60;4.47;
12542;PMS3003;6337;49.556;25.594;2022-08-19T12:36:10;6.23;4.20;
12542;PMS3003;6337;49.556;25.594;2022-08-19T12:38:38;12.40;4.90;
12542;PMS3003;6337;49.556;25.594;2022-08-19T12:41:09;7.77;4.00;
12542;PMS3003;6337;49.556;25.594;2022-08-19T12:43:40;29.60;3.80;
12542;PMS3003;6337;49.556;25.594;2022-08-19T12:46:07;4.60;4.20;
12542;PMS3003;6337;49.556;25.594;2022-08-19T12:48:35;9.90;3.47;
12542;PMS3003;6337;49.556;25.594;2022-08-19T12:51:06;8.33;3.37;
12542;PMS3003;6337;49.556;25.594;2022-08-19T12:53:34;13.50;3.80;
12542;PMS3003;6337;49.556;25.594;2022-08-19T12:56:01;5.70;3.47;
12542;PMS3003;6337;49.556;25.594;2022-08-19T12:58:31;4.30;3.90;
12542;PMS3003;6337;49.556;25.594;2022-08-19T13:01:00;4.17;3.77;
12542;PMS3003;6337;49.556;25.594;2022-08-19T13:03:32;6.67;3.60;
12542;PMS3003;6337;49.556;25.594;2022-08-19T13:06:00;3.93;3.50;
12542;PMS3003;6337;49.556;25.594;2022-08-19T13:08:27;4.83;3.50;
12542;PMS3003;6337;49.556;25.594;2022-08-19T13:10:54;5.20;2.77;
12542;PMS3003;6337;49.556;25.594;2022-08-19T13:13:23;11.23;3.27;
12542;PMS3003;6337;49.556;25.594;2022-08-19T13:15:52;8.80;2.97;
12542;PMS3003;6337;49.556;25.594;2022-08-19T13:18:28;11.17;3.60;
12542;PMS3003;6337;49.556;25.594;2022-08-19T13:20:56;9.53;3.20;
12542;PMS3003;6337;49.556;25.594;2022-08-19T13:23:23;9.30;4.50;
12542;PMS3003;6337;49.556;25.594;2022-08-19T13:25:56;8.70;3.50;
12542;PMS3003;6337;49.556;25.594;2022-08-19T13:28:24;6.30;3.40;
12542;PMS3003;6337;49.556;25.594;2022-08-19T13:31:13;4.90;2.93;
12542;PMS3003;6337;49.556;25.594;2022-08-19T13:33:58;7.30;3.30;
12542;PMS3003;6337;49.556;25.594;2022-08-19T13:36:26;5.00;2.40;
12542;PMS3003;6337;49.556;25.594;2022-08-19T13:38:53;7.67;2.87;
12542;PMS3003;6337;49.556;25.594;2022-08-19T13:41:21;14.23;4.33;
12542;PMS3003;6337;49.556;25.594;2022-08-19T13:43:49;15.27;4.13;
12542;PMS3003;6337;49.556;25.594;2022-08-19T13:46:18;10.23;3.37;
12542;PMS3003;6337;49.556;25.594;2022-08-19T13:48:45;7.77;3.13;
12542;PMS3003;6337;49.556;25.594;2022-08-19T13:51:13;9.37;3.03;
12542;PMS3003;6337;49.556;25.594;2022-08-19T13:53:41;9.10;3.70;
12542;PMS3003;6337;49.556;25.594;2022-08-19T13:56:09;9.00;3.03;
12542;PMS3003;6337;49.556;25.594;2022-08-19T13:58:38;14.90;3.57;
12542;PMS3003;6337;49.556;25.594;2022-08-19T14:01:05;6.80;2.93;
12542;PMS3003;6337;49.556;25.594;2022-08-19T14:03:34;13.37;4.13;
12542;PMS3003;6337;49.556;25.594;2022-08-19T14:06:01;14.73;3.53;
12542;PMS3003;6337;49.556;25.594;2022-08-19T14:08:33;8.83;5.07;
12542;PMS3003;6337;49.556;25.594;2022-08-19T14:11:04;10.27;3.80;
12542;PMS3003;6337;49.556;25.594;2022-08-19T14:13:31;8.83;2.80;
12542;PMS3003;6337;49.556;25.594;2022-08-19T14:15:59;11.03;3.40;
12542;PMS3003;6337;49.556;25.594;2022-08-19T14:18:26;10.50;3.57;
12542;PMS3003;6337;49.556;25.594;2022-08-19T14:20:54;12.03;3.73;
12542;PMS3003;6337;49.556;25.594;2022-08-19T14:23:22;10.53;3.87;
12542;PMS3003;6337;49.556;25.594;2022-08-19T14:25:49;11.30;3.77;
12542;PMS3003;6337;49.556;25.594;2022-08-19T14:28:16;36.30;3.93;
12542;PMS3003;6337;49.556;25.594;2022-08-19T14:30:44;9.13;3.10;
12542;PMS3003;6337;49.556;25.594;2022-08-19T14:33:11;14.30;3.27;
12542;PMS3003;6337;49.556;25.594;2022-08-19T14:35:39;7.73;3.30;
12542;PMS3003;6337;49.556;25.594;2022-08-19T14:38:14;15.57;4.30;
12542;PMS3003;6337;49.556;25.594;2022-08-19T14:40:42;15.60;3.70;
12542;PMS3003;6337;49.556;25.594;2022-08-19T14:43:10;9.77;3.80;
12542;PMS3003;6337;49.556;25.594;2022-08-19T14:45:39;6.30;3.10;
12542;PMS3003;6337;49.556;25.594;2022-08-19T14:48:06;12.17;3.20;
12542;PMS3003;6337;49.556;25.594;2022-08-19T14:50:35;11.73;4.23;
12542;PMS3003;6337;49.556;25.594;2022-08-19T14:53:03;9.33;3.63;
12542;PMS3003;6337;49.556;25.594;2022-08-19T14:55:34;4.13;3.33;
12542;PMS3003;6337;49.556;25.594;2022-08-19T14:58:01;12.20;3.17;
12542;PMS3003;6337;49.556;25.594;2022-08-19T15:00:29;12.57;3.47;
12542;PMS3003;6337;49.556;25.594;2022-08-19T15:02:56;10.80;4.40;
12542;PMS3003;6337;49.556;25.594;2022-08-19T15:05:23;16.47;4.50;
12542;PMS3003;6337;49.556;25.594;2022-08-19T15:07:52;6.20;3.40;
12542;PMS3003;6337;49.556;25.594;2022-08-19T15:10:22;8.20;3.23;
12542;PMS3003;6337;49.556;25.594;2022-08-19T15:12:51;7.83;4.30;